Portada
METAR-TAF:

METAR-TAF

Aeroports :

Rio Branco, Acre, Brasil

latitud: 10-00S, longitud: 067-48W, altitud: 142 m

Observació

L'informe es va fer fa 51 minuts, a les 15:00 UTC
Vent 3 kt del Est
Temperatura 25°C
Humitat 83%
Pressió 1017 hPa
Visibilitat 10 km o més
Núvols disperses a una alçada de 1800 ft
Cel ennuvolat a una alçada de 3000 ft

METAR: SBRB 261500Z 09003KT 9999 SCT018 BKN030 25/22 Q1017

Hora: 10:51 (15:51 UTC)

Pronòstic

L'informe es va fer fa 6 hores i 51 minuts, a les 09:00 UTC
Pronòstic vàlid del 26 a les 12 UTC al 26 a les 24 UTC
Vent 7 kt del Sud-Est
Visibilitat: 7000 m
Cel ennuvolat a una alçada de 800 ft
Evolucionant progressivament
l' 26 a les 14 UTC al 26 a les 16 UTC
Vent 10 kt del Oest/Nord-Oest
Cel ennuvolat a una alçada de 3000 ft
Escasses núvols a una alçada de 3500 ft, Cumulus congestus.

TAF: SBRB 260900Z 2612/2624 14007KT 7000 BKN008 TX25/2618Z TN22/2624Z BECMG 2614/2616 30010KT BKN030 FEW035TCU RMK PGU

Observacions i pronòstics meteorològics de més de 4000 aeroports (METAR i TAF).

Les estacions disponibles són els punts grocs i vermells al mapa.

Posi el ratolí al punt desitjat per veure el nom de l'estació.

Feu clic per veure les observacions i els pronòstics meteorològics.

Per canviar el mapa: feu clic els botons verds amb una creu de color negre per apropar; al botó verd amb un guió per allunyar la imatge; o en les fletxes verdes per a mapes adjacents.


METAR-TAF: